Time;durP1;ratioP1;P1;durP2;ratioP2;P2;SDS_P1;SDS_P2;PMS_P1;PMS_P2;Temp;Humidity;BMP_temperature;BMP_pressure;BME280_temperature;BME280_humidity;BME280_pressure;Samples;Min_cycle;Max_cycle;Signal;HPM_P1;HPM_P2
2021/08/25 00:00:07;;;;;;;36.98;18.12;;;;;;;11.09;76.60;101341.36;1619674;87;27525;-78
2021/08/25 00:02:39;;;;;;;36.90;16.42;;;;;;;11.07;76.71;101335.34;1625652;85;25954;-78
2021/08/25 00:05:08;;;;;;;34.80;16.85;;;;;;;11.05;76.69;101335.17;1569955;87;25872;-78
2021/08/25 00:07:35;;;;;;;43.20;20.55;;;;;;;11.01;76.77;101333.34;1635701;86;26044;-78
2021/08/25 00:10:03;;;;;;;32.00;14.35;;;;;;;11.01;76.90;101327.98;1614144;87;25829;-78
2021/08/25 00:12:30;;;;;;;25.62;12.23;;;;;;;11.01;76.90;101329.83;1639876;87;27454;-78
2021/08/25 00:14:57;;;;;;;24.05;10.88;;;;;;;10.98;76.86;101322.95;1574714;86;25848;-78
2021/08/25 00:17:24;;;;;;;18.17;9.60;;;;;;;10.95;76.94;101321.94;1625316;86;25580;-78
2021/08/25 00:19:51;;;;;;;19.32;8.33;;;;;;;10.93;76.87;101315.92;1625158;86;25778;-78
2021/08/25 00:22:21;;;;;;;23.52;11.40;;;;;;;10.91;76.97;101313.91;1648518;86;26523;-78
2021/08/25 00:24:48;;;;;;;21.07;10.55;;;;;;;10.85;76.88;101317.28;1596271;86;27424;-78
2021/08/25 00:27:15;;;;;;;16.15;8.80;;;;;;;10.79;76.99;101308.10;1627826;86;26630;-78
2021/08/25 00:29:42;;;;;;;13.75;7.67;;;;;;;10.74;76.87;101309.11;1648495;85;26000;-78
2021/08/25 00:32:09;;;;;;;13.50;6.62;;;;;;;10.71;76.94;101312.64;1640136;87;25897;-78
2021/08/25 00:34:37;;;;;;;13.30;6.97;;;;;;;10.66;77.09;101307.79;1576692;86;25857;-78
2021/08/25 00:37:04;;;;;;;12.43;6.83;;;;;;;10.61;77.11;101303.92;1627876;86;27713;-78
2021/08/25 00:39:31;;;;;;;12.47;6.83;;;;;;;10.58;77.34;101297.59;1648282;85;26465;-78
2021/08/25 00:41:58;;;;;;;12.68;6.15;;;;;;;10.54;77.42;101298.94;1618155;87;25822;-78
2021/08/25 00:44:26;;;;;;;11.40;6.28;;;;;;;10.49;77.49;101295.91;1574879;86;25811;-78
2021/08/25 00:46:53;;;;;;;14.55;6.00;;;;;;;10.47;77.79;101295.25;1630009;86;25826;-78
2021/08/25 00:49:20;;;;;;;17.77;7.37;;;;;;;10.43;77.96;101293.42;1624458;86;28344;-78
2021/08/25 00:51:49;;;;;;;12.75;6.45;;;;;;;10.43;77.92;101292.58;1650939;86;25862;-78
2021/08/25 00:54:19;;;;;;;11.78;6.03;;;;;;;10.39;77.78;101292.06;1622504;86;25921;-78
2021/08/25 00:56:49;;;;;;;13.62;6.17;;;;;;;10.32;77.76;101299.12;1613228;87;26343;-78
2021/08/25 00:59:18;;;;;;;17.07;6.58;;;;;;;10.27;78.00;101297.44;1637685;86;25816;-78
2021/08/25 01:02:15;;;;;;;10.53;5.25;;;;;;;10.23;78.10;101299.27;1639912;87;28057;-77
2021/08/25 01:04:52;;;;;;;10.30;5.85;;;;;;;10.17;78.30;101295.44;1621001;86;25841;-78
2021/08/25 01:07:26;;;;;;;10.75;5.70;;;;;;;10.15;78.54;101288.08;1618039;87;25672;-78
2021/08/25 01:09:52;;;;;;;15.20;6.10;;;;;;;10.16;78.58;101286.24;1662153;86;25953;-78
2021/08/25 01:12:21;;;;;;;13.98;5.90;;;;;;;10.10;78.49;101278.33;1661131;86;26416;-78
2021/08/25 01:14:49;;;;;;;13.95;5.87;;;;;;;10.08;78.45;101289.70;1636472;86;27345;-78
2021/08/25 01:17:24;;;;;;;12.28;6.10;;;;;;;10.05;78.57;101286.05;1615332;87;25793;-78
2021/08/25 01:20:06;;;;;;;11.73;5.90;;;;;;;10.02;78.68;101284.53;1624789;86;25902;-78
2021/08/25 01:22:34;;;;;;;10.25;6.12;;;;;;;9.98;78.79;101289.88;1647174;86;26567;-78
2021/08/25 01:25:02;;;;;;;11.22;5.83;;;;;;;9.95;78.80;101288.86;1592885;87;25849;-78
2021/08/25 01:27:30;;;;;;;11.28;5.83;;;;;;;9.94;79.03;101291.19;1593097;87;28375;-77
2021/08/25 01:29:59;;;;;;;11.22;5.97;;;;;;;9.95;79.15;101285.34;1624248;86;25838;-78
2021/08/25 01:32:27;;;;;;;13.35;5.70;;;;;;;9.93;79.10;101285.52;1628377;86;25948;-78
2021/08/25 01:34:57;;;;;;;12.18;5.35;;;;;;;9.91;78.97;101290.70;1592900;87;26430;-78
2021/08/25 01:37:26;;;;;;;12.00;6.03;;;;;;;9.85;78.95;101289.53;1607755;86;25978;-78
2021/08/25 01:39:53;;;;;;;13.62;5.97;;;;;;;9.83;79.01;101287.52;1616030;86;28141;-77
2021/08/25 01:42:22;;;;;;;11.22;6.37;;;;;;;9.79;79.00;101283.51;1638728;87;25969;-78
2021/08/25 01:44:50;;;;;;;10.30;5.92;;;;;;;9.76;78.92;101288.33;1639745;87;26444;-78
2021/08/25 01:47:18;;;;;;;12.18;5.60;;;;;;;9.74;78.94;101287.66;1635669;86;26590;-78
2021/08/25 01:49:46;;;;;;;12.88;6.05;;;;;;;9.70;78.95;101288.99;1628533;86;26700;-78
2021/08/25 01:52:14;;;;;;;12.98;7.10;;;;;;;9.66;79.04;101280.47;1664679;85;27594;-78
2021/08/25 01:54:44;;;;;;;13.90;7.03;;;;;;;9.64;79.13;101281.14;1639530;86;25756;-78
2021/08/25 01:57:11;;;;;;;15.78;8.53;;;;;;;9.64;79.24;101276.28;1639197;86;25821;-78
2021/08/25 01:59:38;;;;;;;12.45;7.35;;;;;;;9.62;79.14;101271.59;1582524;86;27118;-78
2021/08/25 02:02:06;;;;;;;15.20;8.25;;;;;;;9.61;79.14;101272.58;1645201;86;25854;-78
2021/08/25 02:04:34;;;;;;;14.30;7.58;;;;;;;9.60;79.22;101273.08;1614810;87;27296;-78
2021/08/25 02:07:02;;;;;;;13.13;7.58;;;;;;;9.58;79.19;101260.89;1593202;87;26266;-78
2021/08/25 02:09:30;;;;;;;16.05;7.15;;;;;;;9.53;79.12;101268.06;1637115;86;26066;-78
2021/08/25 02:11:57;;;;;;;14.40;7.45;;;;;;;9.51;79.10;101266.55;1641791;86;25962;-78
2021/08/25 02:14:24;;;;;;;18.15;8.53;;;;;;;9.48;79.04;101265.53;1615251;86;26080;-78
2021/08/25 02:16:51;;;;;;;13.70;7.22;;;;;;;9.46;78.96;101263.52;1615713;87;27893;-78
2021/08/25 02:19:18;;;;;;;14.03;6.80;;;;;;;9.42;78.93;101255.49;1624391;86;25876;-78
2021/08/25 02:21:45;;;;;;;13.48;6.60;;;;;;;9.36;78.85;101248.13;1648605;86;25752;-78
2021/08/25 02:24:12;;;;;;;12.05;6.30;;;;;;;9.28;78.89;101248.44;1613588;87;26471;-78
2021/08/25 02:26:39;;;;;;;13.10;6.33;;;;;;;9.26;78.93;101250.92;1627766;86;25647;-78
2021/08/25 02:29:06;;;;;;;12.80;6.25;;;;;;;9.21;78.99;101246.59;1602324;84;28252;-78
2021/08/25 02:31:33;;;;;;;12.37;5.87;;;;;;;9.19;78.99;101250.77;1648415;86;25679;-77
2021/08/25 02:34:01;;;;;;;12.20;6.40;;;;;;;9.18;79.18;101256.25;1569884;86;25792;-78
2021/08/25 02:36:28;;;;;;;14.65;5.72;;;;;;;9.16;79.23;101250.23;1608971;85;25860;-77
2021/08/25 02:38:55;;;;;;;11.45;5.58;;;;;;;9.13;79.08;101251.38;1621407;87;26642;-78
2021/08/25 02:41:23;;;;;;;15.30;5.37;;;;;;;9.09;79.11;101255.88;1645630;85;27516;-78
2021/08/25 02:43:50;;;;;;;9.40;5.10;;;;;;;9.06;79.18;101247.70;1596537;87;26320;-78
2021/08/25 02:46:18;;;;;;;8.68;4.20;;;;;;;9.02;78.82;101246.36;1610630;86;25836;-78
2021/08/25 02:48:46;;;;;;;9.78;4.10;;;;;;;8.96;78.81;101243.48;1642391;85;26022;-78
2021/08/25 02:51:13;;;;;;;7.17;3.70;;;;;;;8.88;78.77;101237.59;1648569;86;25777;-78
2021/08/25 02:53:40;;;;;;;10.32;3.67;;;;;;;8.85;78.90;101243.77;1602578;84;27509;-78
2021/08/25 02:56:07;;;;;;;11.68;4.10;;;;;;;8.80;78.81;101238.91;1628603;86;26183;-78
2021/08/25 02:58:34;;;;;;;7.37;4.55;;;;;;;8.74;78.86;101239.55;1645560;85;26602;-78
2021/08/25 03:01:01;;;;;;;9.98;4.45;;;;;;;8.73;79.08;101241.02;1645459;87;25836;-78
2021/08/25 03:03:28;;;;;;;9.35;4.90;;;;;;;8.70;79.28;101230.67;1638568;86;25547;-78
2021/08/25 03:05:55;;;;;;;11.38;5.20;;;;;;;8.72;79.84;101231.34;1611272;87;27476;-78
2021/08/25 03:08:22;;;;;;;11.08;5.25;;;;;;;8.75;80.17;101230.52;1620805;85;25776;-78
2021/08/25 03:10:49;;;;;;;10.60;5.72;;;;;;;8.79;80.48;101223.86;1645853;87;25980;-78
2021/08/25 03:13:16;;;;;;;10.72;6.05;;;;;;;8.81;80.60;101223.20;1570677;87;25906;-78
2021/08/25 03:15:43;;;;;;;13.93;5.45;;;;;;;8.81;80.71;101223.72;1624264;87;25904;-78
2021/08/25 03:18:10;;;;;;;12.50;5.33;;;;;;;8.80;80.37;101221.54;1604081;86;27192;-78
2021/08/25 03:20:37;;;;;;;11.08;4.83;;;;;;;8.80;80.27;101224.20;1623469;87;26443;-78
2021/08/25 03:23:04;;;;;;;10.13;4.53;;;;;;;8.80;80.14;101224.70;1619336;87;25814;-78
2021/08/25 03:25:31;;;;;;;9.43;5.12;;;;;;;8.75;79.85;101218.50;1622182;87;25937;-78
2021/08/25 03:27:58;;;;;;;9.58;4.95;;;;;;;8.68;79.90;101212.14;1647182;86;25831;-78
2021/08/25 03:30:25;;;;;;;9.58;4.95;;;;;;;8.66;79.89;101210.10;1645609;84;27543;-78
2021/08/25 03:32:52;;;;;;;11.90;4.80;;;;;;;8.62;79.86;101205.27;1570845;87;26071;-78
2021/08/25 03:35:19;;;;;;;10.23;4.40;;;;;;;8.61;79.93;101205.75;1624169;86;25312;-78
2021/08/25 03:37:46;;;;;;;11.75;5.33;;;;;;;8.59;79.95;101206.41;1620136;87;25946;-78
2021/08/25 03:40:13;;;;;;;13.70;6.60;;;;;;;8.58;80.09;101210.06;1621259;87;25914;-78
2021/08/25 03:42:40;;;;;;;10.68;5.12;;;;;;;8.57;80.11;101207.08;1571153;87;27402;-77
2021/08/25 03:45:09;;;;;;;13.50;4.83;;;;;;;8.53;79.94;101218.55;1624540;87;25833;-77
2021/08/25 03:47:36;;;;;;;9.33;4.60;;;;;;;8.51;80.06;101217.06;1648047;86;25902;-78
2021/08/25 03:50:03;;;;;;;12.78;4.83;;;;;;;8.50;80.04;101215.38;1623281;87;25943;-78
2021/08/25 03:52:30;;;;;;;11.08;5.40;;;;;;;8.48;80.06;101208.02;1589179;87;25884;-78
2021/08/25 03:54:57;;;;;;;18.98;6.15;;;;;;;8.44;80.11;101210.67;1597322;87;27639;-78
2021/08/25 03:57:24;;;;;;;11.80;5.10;;;;;;;8.41;80.10;101206.48;1646272;86;26188;-78
2021/08/25 03:59:51;;;;;;;10.65;5.22;;;;;;;8.40;80.17;101202.64;1645224;86;26625;-79
2021/08/25 04:02:18;;;;;;;10.05;4.97;;;;;;;8.36;80.59;101206.10;1570429;87;26516;-78
2021/08/25 04:04:45;;;;;;;11.33;5.15;;;;;;;8.37;80.84;101202.94;1622802;87;25895;-78
2021/08/25 04:07:13;;;;;;;11.40;6.00;;;;;;;8.37;81.09;101201.12;1620604;87;28264;-78
2021/08/25 04:09:40;;;;;;;11.33;6.00;;;;;;;8.40;81.10;101207.98;1646082;87;25861;-78
2021/08/25 04:12:08;;;;;;;12.65;5.83;;;;;;;8.43;81.29;101205.82;1572606;87;25829;-78
2021/08/25 04:14:35;;;;;;;12.37;6.10;;;;;;;8.47;81.46;101203.17;1618260;87;26012;-78
2021/08/25 04:17:02;;;;;;;10.68;5.62;;;;;;;8.48;81.47;101200.85;1647197;86;25993;-78
2021/08/25 04:19:29;;;;;;;10.23;5.80;;;;;;;8.49;81.44;101201.17;1645526;87;26970;-78
2021/08/25 04:21:56;;;;;;;11.43;5.78;;;;;;;8.48;81.35;101194.67;1570437;87;26363;-78
2021/08/25 04:24:24;;;;;;;11.83;5.80;;;;;;;8.46;81.51;101194.84;1598520;87;25960;-78
2021/08/25 04:26:51;;;;;;;10.70;5.72;;;;;;;8.48;81.71;101201.34;1619694;87;25911;-78
2021/08/25 04:29:18;;;;;;;13.58;5.22;;;;;;;8.49;82.05;101205.18;1647490;84;25850;-78
2021/08/25 04:31:45;;;;;;;15.63;6.45;;;;;;;8.52;82.11;101196.02;1608906;86;26904;-78
2021/08/25 04:34:13;;;;;;;10.85;5.72;;;;;;;8.55;82.18;101195.72;1599313;87;26291;-78
2021/08/25 04:36:40;;;;;;;10.45;4.83;;;;;;;8.57;82.25;101195.06;1638320;86;25894;-78
2021/08/25 04:39:07;;;;;;;12.20;5.10;;;;;;;8.60;82.27;101197.91;1636121;86;25810;-78
2021/08/25 04:41:34;;;;;;;9.85;5.05;;;;;;;8.60;82.42;101196.58;1584167;87;25959;-78
2021/08/25 04:44:01;;;;;;;11.65;5.10;;;;;;;8.59;82.48;101187.72;1618832;87;28143;-78
2021/08/25 04:46:28;;;;;;;17.55;5.58;;;;;;;8.62;82.74;101192.72;1590168;87;25393;-78
2021/08/25 04:48:55;;;;;;;18.80;5.15;;;;;;;8.63;82.65;101194.41;1636537;87;26102;-78
2021/08/25 04:51:22;;;;;;;11.30;5.45;;;;;;;8.65;82.79;101195.09;1592855;87;25688;-78
2021/08/25 04:53:49;;;;;;;9.83;5.17;;;;;;;8.69;82.87;101197.78;1617147;87;26540;-77
2021/08/25 04:56:16;;;;;;;14.28;5.70;;;;;;;8.68;82.89;101193.45;1638897;86;26942;-78
2021/08/25 04:58:43;;;;;;;10.78;5.03;;;;;;;8.67;82.97;101193.58;1624531;86;26517;-78
2021/08/25 05:01:10;;;;;;;9.15;5.20;;;;;;;8.66;83.16;101195.41;1624000;86;26026;-78
2021/08/25 05:03:37;;;;;;;10.75;5.20;;;;;;;8.63;83.28;101194.91;1602084;86;25868;-78
2021/08/25 05:06:10;;;;;;;10.00;5.30;;;;;;;8.61;83.42;101196.41;1620551;87;26581;-78
2021/08/25 05:08:38;;;;;;;10.32;5.22;;;;;;;8.62;83.64;101200.73;1624972;85;27523;-78
2021/08/25 05:11:07;;;;;;;13.83;6.50;;;;;;;8.64;83.84;101194.73;1622886;87;26004;-77
2021/08/25 05:13:34;;;;;;;13.13;6.10;;;;;;;8.70;84.16;101191.45;1605779;86;25811;-78
2021/08/25 05:16:01;;;;;;;12.00;6.10;;;;;;;8.76;84.52;101188.63;1660565;86;25843;-78
2021/08/25 05:18:28;;;;;;;15.32;6.40;;;;;;;8.81;84.66;101193.00;1615559;86;25613;-78
2021/08/25 05:20:55;;;;;;;12.80;5.25;;;;;;;8.89;84.98;101191.20;1589444;87;27479;-78
2021/08/25 05:23:22;;;;;;;12.55;5.67;;;;;;;8.94;85.01;101184.03;1618495;87;26012;-78
2021/08/25 05:25:49;;;;;;;15.78;5.87;;;;;;;8.93;85.18;101187.69;1625694;87;25807;-78
2021/08/25 05:28:16;;;;;;;12.63;7.00;;;;;;;8.94;85.52;101186.18;1597936;87;26659;-78
2021/08/25 05:30:43;;;;;;;13.13;6.08;;;;;;;8.99;85.77;101187.88;1598887;86;25432;-78
2021/08/25 05:33:10;;;;;;;14.93;6.50;;;;;;;9.05;86.14;101182.37;1628423;85;28619;-78
2021/08/25 05:35:37;;;;;;;15.55;6.85;;;;;;;9.12;86.42;101174.89;1645937;85;25820;-78
2021/08/25 05:38:04;;;;;;;12.15;5.67;;;;;;;9.18;86.57;101170.22;1624639;86;25886;-78
2021/08/25 05:40:31;;;;;;;13.70;6.30;;;;;;;9.27;86.85;101169.74;1625235;86;26130;-78
2021/08/25 05:42:58;;;;;;;15.63;6.97;;;;;;;9.32;86.79;101168.77;1624553;86;25964;-78
2021/08/25 05:45:25;;;;;;;17.75;8.18;;;;;;;9.37;86.90;101166.93;1644342;87;28120;-78
2021/08/25 05:47:56;;;;;;;18.23;8.45;;;;;;;9.43;87.06;101162.25;1618665;87;25353;-79
2021/08/25 05:50:21;;;;;;;14.60;7.47;;;;;;;9.48;86.93;101163.91;1620098;87;25922;-78
2021/08/25 05:52:48;;;;;;;15.75;6.97;;;;;;;9.54;87.34;101159.27;1644751;87;25867;-78
2021/08/25 05:55:15;;;;;;;13.65;7.55;;;;;;;9.59;87.39;101157.75;1647753;84;26162;-78
2021/08/25 05:57:46;;;;;;;11.53;6.65;;;;;;;9.66;87.46;101160.09;1625362;87;27564;-78
2021/08/25 06:00:14;;;;;;;11.80;7.08;;;;;;;9.69;87.31;101161.08;1628237;86;25774;-78
2021/08/25 06:02:43;;;;;;;16.62;7.55;;;;;;;9.76;87.53;101161.25;1627531;86;26088;-78
2021/08/25 06:05:12;;;;;;;15.13;6.92;;;;;;;9.82;87.50;101157.41;1645760;85;25851;-79
2021/08/25 06:07:40;;;;;;;12.07;6.20;;;;;;;9.88;87.66;101159.92;1578622;87;26695;-78
2021/08/25 06:10:10;;;;;;;13.55;6.95;;;;;;;9.95;88.03;101159.56;1625703;85;27484;-78
2021/08/25 06:12:37;;;;;;;10.82;6.67;;;;;;;10.03;88.27;101163.06;1648368;85;25829;-78
2021/08/25 06:15:05;;;;;;;15.25;6.40;;;;;;;10.11;88.12;101160.09;1645502;85;25835;-77
2021/08/25 06:17:32;;;;;;;13.00;6.25;;;;;;;10.19;88.30;101150.20;1600096;87;26590;-78
2021/08/25 06:19:59;;;;;;;12.73;6.60;;;;;;;10.29;88.31;101155.34;1576650;87;26441;-78
2021/08/25 06:22:29;;;;;;;16.82;7.95;;;;;;;10.38;88.37;101152.98;1645773;86;27534;-78
2021/08/25 06:24:57;;;;;;;21.75;7.65;;;;;;;10.45;88.03;101156.16;1624359;87;26620;-78
2021/08/25 06:27:25;;;;;;;13.50;6.62;;;;;;;10.53;88.15;101158.80;1578201;86;25888;-79
2021/08/25 06:29:52;;;;;;;14.78;6.65;;;;;;;10.60;88.15;101161.12;1624455;87;25879;-79
2021/08/25 06:32:20;;;;;;;12.63;6.00;;;;;;;10.70;88.55;101164.42;1649983;85;25963;-78
2021/08/25 06:34:47;;;;;;;16.65;7.47;;;;;;;10.77;88.51;101161.39;1646037;86;27520;-78
2021/08/25 06:37:14;;;;;;;19.23;7.62;;;;;;;10.86;88.23;101158.98;1606082;86;25994;-79
2021/08/25 06:39:41;;;;;;;10.05;6.15;;;;;;;10.96;88.26;101154.76;1618810;86;25373;-78
2021/08/25 06:42:08;;;;;;;11.55;5.55;;;;;;;11.03;88.17;101151.72;1624747;86;26496;-78
2021/08/25 06:44:35;;;;;;;15.68;6.53;;;;;;;11.12;88.49;101149.29;1649621;86;25920;-78
2021/08/25 06:47:02;;;;;;;12.90;7.20;;;;;;;11.20;88.42;101145.24;1601716;87;27622;-77
2021/08/25 06:49:29;;;;;;;17.05;7.20;;;;;;;11.29;88.42;101139.32;1619299;87;25789;-78
2021/08/25 06:51:57;;;;;;;12.30;6.30;;;;;;;11.36;87.97;101141.09;1620334;87;26023;-79
2021/08/25 06:54:24;;;;;;;15.75;7.37;;;;;;;11.43;87.85;101134.51;1622102;86;25940;-78
2021/08/25 06:56:51;;;;;;;13.72;6.55;;;;;;;11.47;87.30;101134.48;1603316;85;25792;-78
2021/08/25 06:59:18;;;;;;;12.05;6.15;;;;;;;11.57;87.84;101128.34;1623372;85;27581;-79
2021/08/25 07:01:45;;;;;;;10.60;6.50;;;;;;;11.67;87.85;101127.65;1624644;86;26277;-78
2021/08/25 07:04:12;;;;;;;14.10;7.05;;;;;;;11.77;87.58;101120.67;1648228;85;25930;-78
2021/08/25 07:06:39;;;;;;;14.03;6.28;;;;;;;11.85;87.40;101131.33;1625202;87;26537;-78
2021/08/25 07:09:06;;;;;;;14.10;6.85;;;;;;;11.91;87.03;101115.33;1625333;86;25800;-78
2021/08/25 07:11:35;;;;;;;16.20;6.22;;;;;;;11.98;86.88;101122.14;1648697;86;27658;-78
2021/08/25 07:14:03;;;;;;;11.93;6.58;;;;;;;12.06;87.20;101122.89;1645781;85;25980;-78
2021/08/25 07:16:36;;;;;;;13.38;6.70;;;;;;;12.17;87.24;101117.58;1624670;87;25985;-78
2021/08/25 07:19:04;;;;;;;14.60;7.45;;;;;;;12.27;86.92;101118.97;1621710;87;26458;-78
2021/08/25 07:21:32;;;;;;;15.50;6.80;;;;;;;12.31;86.80;101111.39;1597284;87;25805;-78
2021/08/25 07:23:59;;;;;;;16.52;7.05;;;;;;;12.38;86.47;101116.36;1645605;86;27599;-78
2021/08/25 07:26:27;;;;;;;15.70;6.78;;;;;;;12.49;86.52;101119.08;1602808;87;26022;-81
2021/08/25 07:28:54;;;;;;;13.75;7.60;;;;;;;12.56;85.88;101115.45;1619502;87;26371;-78
2021/08/25 07:31:21;;;;;;;16.55;6.78;;;;;;;12.60;85.02;101110.52;1600902;87;26554;-78
2021/08/25 07:33:48;;;;;;;11.15;6.28;;;;;;;12.67;84.79;101115.48;1646210;85;25856;-79
2021/08/25 07:36:15;;;;;;;12.98;6.28;;;;;;;12.74;84.94;101109.18;1597602;87;27598;-78
2021/08/25 07:38:43;;;;;;;40.52;14.93;;;;;;;12.82;85.16;101099.66;1597080;87;25920;-79
2021/08/25 07:41:10;;;;;;;21.85;8.58;;;;;;;12.92;84.67;101096.64;1627358;85;26508;-79
2021/08/25 07:43:37;;;;;;;13.72;7.55;;;;;;;12.97;84.63;101094.23;1649607;85;26374;-79
2021/08/25 07:46:04;;;;;;;12.40;6.35;;;;;;;13.07;84.85;101089.40;1607760;86;25841;-78
2021/08/25 07:48:32;;;;;;;16.40;7.08;;;;;;;13.15;84.21;101086.08;1624777;85;27481;-79
2021/08/25 07:50:59;;;;;;;14.40;7.05;;;;;;;13.21;83.62;101081.80;1648107;85;25858;-79
2021/08/25 07:53:26;;;;;;;13.83;5.95;;;;;;;13.27;84.00;101078.34;1645683;85;26591;-79
2021/08/25 07:55:54;;;;;;;13.45;5.90;;;;;;;13.36;84.24;101078.53;1604693;87;25874;-79
2021/08/25 07:58:21;;;;;;;14.30;6.35;;;;;;;13.45;84.37;101075.20;1628419;86;25989;-78
2021/08/25 08:00:48;;;;;;;17.45;6.80;;;;;;;13.55;84.10;101074.34;1599422;87;27198;-78
2021/08/25 08:03:15;;;;;;;12.65;6.10;;;;;;;13.63;84.37;101069.65;1647442;85;26322;-79
2021/08/25 08:05:44;;;;;;;14.10;7.15;;;;;;;13.75;82.95;101075.34;1605841;87;26193;-79
2021/08/25 08:08:11;;;;;;;15.08;7.70;;;;;;;13.76;83.29;101064.88;1622713;86;25916;-79
2021/08/25 08:10:38;;;;;;;10.95;6.05;;;;;;;13.85;82.98;101061.02;1566490;86;25650;-79
2021/08/25 08:13:05;;;;;;;14.40;7.37;;;;;;;13.93;82.85;101071.13;1611130;87;27575;-78
2021/08/25 08:15:33;;;;;;;13.45;5.42;;;;;;;14.03;82.67;101069.41;1604420;87;25883;-79
2021/08/25 08:18:09;;;;;;;13.30;8.30;;;;;;;14.11;82.00;101061.70;1619474;87;25896;-78
2021/08/25 08:20:29;;;;;;;12.53;6.47;;;;;;;14.16;81.51;101057.87;1645062;85;26372;-79
2021/08/25 08:22:56;;;;;;;12.23;7.25;;;;;;;14.24;81.37;101056.39;1646308;84;25763;-79
2021/08/25 08:25:23;;;;;;;11.53;7.05;;;;;;;14.32;80.98;101062.48;1613662;87;27548;-79
2021/08/25 08:27:50;;;;;;;14.40;7.05;;;;;;;14.40;81.29;101060.12;1619407;87;25894;-79
2021/08/25 08:30:17;;;;;;;9.83;5.53;;;;;;;14.49;80.44;101060.27;1625319;86;25857;-79
2021/08/25 08:32:44;;;;;;;19.80;7.70;;;;;;;14.56;80.99;101058.44;1646201;87;26302;-79
2021/08/25 08:35:11;;;;;;;15.15;7.50;;;;;;;14.63;80.28;101052.53;1598530;87;26615;-78
2021/08/25 08:37:38;;;;;;;15.25;7.30;;;;;;;14.70;80.11;101053.40;1646835;86;27543;-78
2021/08/25 08:40:07;;;;;;;14.05;7.28;;;;;;;14.73;80.14;101050.31;1619596;87;26047;-78
2021/08/25 08:42:36;;;;;;;15.03;6.85;;;;;;;14.80;80.84;101048.98;1619867;87;25545;-80
2021/08/25 08:45:07;;;;;;;28.25;16.85;;;;;;;14.87;79.98;101050.65;1603849;87;26355;-79
2021/08/25 08:47:34;;;;;;;18.40;8.58;;;;;;;14.90;78.89;101038.62;1646312;87;25923;-79
2021/08/25 08:50:02;;;;;;;13.30;5.85;;;;;;;14.94;79.22;101036.67;1645760;87;28510;-79
2021/08/25 08:52:29;;;;;;;11.50;6.28;;;;;;;15.01;78.79;101029.39;1618322;87;26512;-80
2021/08/25 08:54:59;;;;;;;12.23;7.15;;;;;;;15.03;77.73;101028.70;1619664;87;25922;-79
2021/08/25 08:57:27;;;;;;;11.80;6.12;;;;;;;15.07;77.80;101021.86;1619255;87;25884;-79
2021/08/25 08:59:54;;;;;;;10.32;5.87;;;;;;;15.13;78.53;101018.33;1625485;86;26659;-79
2021/08/25 09:02:42;;;;;;;10.55;6.58;;;;;;;15.18;78.22;101017.72;1619631;87;27379;-80
2021/08/25 09:05:32;;;;;;;10.15;6.08;;;;;;;15.16;77.02;101015.75;1628014;87;25780;-79
2021/08/25 09:08:03;;;;;;;16.85;6.60;;;;;;;15.19;77.35;101018.02;1615240;87;25985;-78
2021/08/25 09:10:36;;;;;;;12.10;6.20;;;;;;;15.15;76.26;101012.72;1646312;84;26370;-79
2021/08/25 09:13:10;;;;;;;12.98;5.92;;;;;;;15.19;77.21;101009.41;1568364;87;25782;-78
2021/08/25 09:15:41;;;;;;;12.47;5.90;;;;;;;15.26;77.51;101011.59;1624920;87;27620;-79
2021/08/25 09:18:14;;;;;;;8.88;5.45;;;;;;;15.36;76.12;101012.52;1642746;86;25810;-79
2021/08/25 09:20:48;;;;;;;13.93;6.72;;;;;;;15.40;76.89;101008.36;1646057;87;25824;-79
2021/08/25 09:23:25;;;;;;;12.45;5.95;;;;;;;15.43;76.60;101008.83;1624389;86;25837;-78
2021/08/25 09:25:58;;;;;;;10.48;5.33;;;;;;;15.52;76.86;101007.25;1620177;87;26581;-79
2021/08/25 09:28:35;;;;;;;10.25;6.12;;;;;;;15.57;76.70;101002.07;1648705;86;27597;-79
2021/08/25 09:31:08;;;;;;;12.50;7.85;;;;;;;15.64;77.47;101004.22;1644588;87;25924;-79
2021/08/25 09:33:39;;;;;;;11.50;5.87;;;;;;;15.73;76.89;100997.05;1601426;86;25884;-79
2021/08/25 09:36:12;;;;;;;13.08;5.42;;;;;;;15.77;75.65;100996.10;1625407;86;26432;-79
2021/08/25 09:38:41;;;;;;;9.30;5.33;;;;;;;15.78;75.39;100987.78;1645810;87;25873;-78
2021/08/25 09:41:11;;;;;;;13.53;6.45;;;;;;;15.81;75.28;100981.97;1643220;87;28199;-79
2021/08/25 09:43:45;;;;;;;14.33;5.97;;;;;;;15.89;75.07;100975.48;1620175;86;25818;-79
2021/08/25 09:46:22;;;;;;;9.20;5.30;;;;;;;15.96;75.56;100968.20;1625230;86;25878;-78
2021/08/25 09:48:57;;;;;;;10.38;5.22;;;;;;;16.08;75.78;100971.92;1637589;86;25861;-79
2021/08/25 09:51:39;;;;;;;11.50;4.78;;;;;;;16.20;75.69;100966.15;1646124;87;25888;-79
2021/08/25 09:54:11;;;;;;;9.00;4.42;;;;;;;16.34;75.00;100962.87;1644016;87;28125;-79
2021/08/25 09:56:40;;;;;;;8.85;4.60;;;;;;;16.37;74.32;100956.50;1645592;87;25959;-79
2021/08/25 09:59:10;;;;;;;6.50;4.40;;;;;;;16.37;72.87;100952.45;1647342;85;25921;-78
2021/08/25 10:01:39;;;;;;;7.95;4.28;;;;;;;16.39;73.14;100951.71;1646246;87;26029;-78
2021/08/25 10:04:13;;;;;;;8.78;4.92;;;;;;;16.42;72.72;100951.81;1619982;87;25818;-78
2021/08/25 10:06:45;;;;;;;8.98;4.55;;;;;;;16.47;73.18;100951.97;1604264;87;27621;-79
2021/08/25 10:09:14;;;;;;;6.37;4.28;;;;;;;16.53;73.46;100947.91;1623923;87;26533;-79
2021/08/25 10:12:00;;;;;;;6.72;3.75;;;;;;;16.63;71.28;100933.41;1643277;86;25937;-79
2021/08/25 10:14:30;;;;;;;10.50;4.47;;;;;;;16.66;71.47;100930.25;1620584;86;25796;-79
2021/08/25 10:16:57;;;;;;;8.45;4.10;;;;;;;16.71;71.93;100920.97;1619800;87;26578;-78
2021/08/25 10:19:39;;;;;;;5.67;3.42;;;;;;;16.69;70.89;100920.36;1646116;85;27640;-78
2021/08/25 10:22:22;;;;;;;4.78;2.72;;;;;;;16.69;68.98;100920.88;1644609;87;26031;-79
2021/08/25 10:25:01;;;;;;;4.60;2.77;;;;;;;16.70;68.88;100916.59;1619532;87;36268;-79
2021/08/25 10:27:30;;;;;;;4.95;2.83;;;;;;;16.69;67.98;100907.34;1619066;86;25941;-79
2021/08/25 10:30:12;;;;;;;3.65;2.17;;;;;;;16.76;68.86;100902.22;1623303;87;25832;-78
2021/08/25 10:32:54;;;;;;;3.90;2.42;;;;;;;16.85;67.76;100894.11;1646055;87;27571;-79
2021/08/25 10:35:32;;;;;;;6.45;2.52;;;;;;;16.95;66.91;100888.21;1618677;87;25765;-79
2021/08/25 10:38:25;;;;;;;7.42;2.47;;;;;;;16.92;66.44;100880.01;1596506;87;25640;-78
2021/08/25 10:41:01;;;;;;;6.87;2.75;;;;;;;16.96;66.43;100887.15;1597526;87;26572;-79
2021/08/25 10:43:43;;;;;;;5.83;2.52;;;;;;;17.02;66.18;100877.33;1624550;87;25748;-79
2021/08/25 10:46:17;;;;;;;6.03;3.83;;;;;;;17.10;66.50;100875.17;1623937;87;27456;-79
2021/08/25 10:48:52;;;;;;;9.18;2.80;;;;;;;17.10;65.61;100868.41;1638042;86;25869;-79
2021/08/25 10:51:37;;;;;;;3.17;1.60;;;;;;;17.12;63.68;100866.82;1636222;86;25844;-78
2021/08/25 10:54:08;;;;;;;3.55;1.72;;;;;;;17.18;63.16;100861.34;1626025;87;25876;-79
2021/08/25 10:56:45;;;;;;;2.65;1.70;;;;;;;17.26;62.20;100858.86;1618848;86;25933;-79
2021/08/25 10:59:19;;;;;;;3.22;2.35;;;;;;;17.37;62.98;100845.42;1601877;86;27523;-80
2021/08/25 11:01:49;;;;;;;3.17;1.77;;;;;;;17.54;62.05;100845.16;1604725;86;25911;-79
2021/08/25 11:04:22;;;;;;;3.83;2.27;;;;;;;17.60;60.85;100849.66;1646197;86;25783;-79
2021/08/25 11:06:56;;;;;;;3.62;2.80;;;;;;;17.52;61.46;100843.20;1648341;86;26414;-78
2021/08/25 11:09:36;;;;;;;4.60;2.33;;;;;;;17.47;62.38;100834.08;1607604;86;25801;-79
2021/08/25 11:12:23;;;;;;;9.75;2.83;;;;;;;17.46;62.82;100826.98;1622596;87;27560;-79
2021/08/25 11:14:56;;;;;;;6.55;3.83;;;;;;;17.45;63.51;100831.58;1643142;87;25852;-78
2021/08/25 11:17:31;;;;;;;7.53;3.30;;;;;;;17.42;62.88;100825.27;1645818;86;25949;-80
2021/08/25 11:20:10;;;;;;;7.37;3.22;;;;;;;17.41;62.70;100825.47;1618335;86;26526;-80
2021/08/25 11:22:44;;;;;;;9.03;3.40;;;;;;;17.41;63.27;100824.12;1605996;86;25882;-80
2021/08/25 11:25:14;;;;;;;4.67;2.72;;;;;;;17.42;63.17;100819.86;1637582;85;27634;-79
2021/08/25 11:27:49;;;;;;;6.20;2.90;;;;;;;17.45;63.93;100813.16;1648777;85;26242;-79
2021/08/25 11:30:28;;;;;;;9.10;4.20;;;;;;;17.46;63.29;100812.93;1589445;86;25831;-80